Time;durP1;ratioP1;P1;durP2;ratioP2;P2;SDS_P1;SDS_P2;PMS_P1;PMS_P2;Temp;Humidity;BMP_temperature;BMP_pressure;BME280_temperature;BME280_humidity;BME280_pressure;Samples;Min_cycle;Max_cycle;Signal;HPM_P1;HPM_P2
2022/01/03 00:01:19;;;;;;;5.88;3.03;;;10.70;76.10;;;;;;5071561;28;20038;-68
2022/01/03 00:03:44;;;;;;;5.60;3.08;;;10.80;75.80;;;;;;5072206;28;20043;-68
2022/01/03 00:06:11;;;;;;;5.40;3.13;;;10.80;75.60;;;;;;5071550;28;20029;-68
2022/01/03 00:08:43;;;;;;;5.03;3.10;;;10.80;75.70;;;;;;5072014;28;20068;-69
2022/01/03 00:11:11;;;;;;;8.18;3.55;;;10.80;75.50;;;;;;5071441;28;20047;-70
2022/01/03 00:13:44;;;;;;;10.60;3.63;;;10.80;75.30;;;;;;5071983;28;20428;-68
2022/01/03 00:16:11;;;;;;;5.55;3.15;;;10.90;75.30;;;;;;5071218;28;20029;-67
2022/01/03 00:18:37;;;;;;;6.80;2.92;;;10.90;75.00;;;;;;5072105;28;20103;-67
2022/01/03 00:21:09;;;;;;;4.78;2.88;;;10.80;75.00;;;;;;5072451;28;20032;-68
2022/01/03 00:23:38;;;;;;;4.40;2.70;;;10.80;75.30;;;;;;5075612;28;20028;-67
2022/01/03 00:26:06;;;;;;;5.65;2.80;;;10.80;75.40;;;;;;5075429;28;20025;-68
2022/01/03 00:28:39;;;;;;;6.32;3.17;;;10.80;75.30;;;;;;5075413;28;20020;-67
2022/01/03 00:31:05;;;;;;;5.10;3.17;;;10.80;75.40;;;;;;5075701;28;20024;-68
2022/01/03 00:33:32;;;;;;;6.20;2.80;;;10.80;75.60;;;;;;5074904;28;20093;-67
2022/01/03 00:36:00;;;;;;;9.10;3.08;;;10.80;75.50;;;;;;5075330;28;20025;-68
2022/01/03 00:38:29;;;;;;;4.20;2.83;;;10.80;75.60;;;;;;5074620;28;20763;-68
2022/01/03 00:40:56;;;;;;;5.07;3.15;;;10.80;75.60;;;;;;5074890;28;20025;-68
2022/01/03 00:43:22;;;;;;;3.85;2.20;;;10.80;75.60;;;;;;5074726;28;20025;-69
2022/01/03 00:45:52;;;;;;;8.40;3.65;;;10.90;75.40;;;;;;5075019;28;20056;-69
2022/01/03 00:48:18;;;;;;;4.68;3.40;;;10.80;75.10;;;;;;5074605;28;20029;-68
2022/01/03 00:50:43;;;;;;;4.22;2.35;;;10.80;75.20;;;;;;5075079;28;20033;-68
2022/01/03 00:53:09;;;;;;;6.47;3.85;;;10.80;75.70;;;;;;5074258;28;20492;-67
2022/01/03 00:55:35;;;;;;;9.13;3.70;;;10.90;75.30;;;;;;5074704;28;20048;-69
2022/01/03 00:58:08;;;;;;;7.03;3.40;;;10.90;75.40;;;;;;5074683;28;20025;-68
2022/01/03 01:00:40;;;;;;;8.52;3.08;;;10.90;75.20;;;;;;5074789;28;20154;-68
2022/01/03 01:03:11;;;;;;;6.50;3.50;;;10.90;75.40;;;;;;5074766;28;20028;-68
2022/01/03 01:06:00;;;;;;;8.77;3.42;;;10.90;75.10;;;;;;5074663;28;20024;-68
2022/01/03 01:08:26;;;;;;;7.53;3.35;;;10.90;75.30;;;;;;5074322;28;20103;-68
2022/01/03 01:10:55;;;;;;;5.43;3.40;;;10.90;75.70;;;;;;5074729;28;20032;-69
2022/01/03 01:13:22;;;;;;;8.18;3.53;;;10.80;75.80;;;;;;5074140;28;20027;-68
2022/01/03 01:15:48;;;;;;;6.03;2.78;;;10.90;75.70;;;;;;5074342;28;20128;-68
2022/01/03 01:18:13;;;;;;;19.65;7.20;;;10.80;76.00;;;;;;5074123;28;20096;-68
2022/01/03 01:20:41;;;;;;;7.88;5.07;;;10.90;76.00;;;;;;5074538;28;20020;-68
2022/01/03 01:23:09;;;;;;;8.95;5.10;;;10.90;76.00;;;;;;5074184;28;20491;-69
2022/01/03 01:28:07;;;;;;;12.45;5.45;;;10.90;76.30;;;;;;5074345;28;20484;-69
2022/01/03 01:30:33;;;;;;;;;;;10.90;76.20;;;;;;5074171;28;20488;-68
2022/01/03 01:33:06;;;;;;;9.40;3.70;;;10.80;76.50;;;;;;5073906;28;19912;-68
2022/01/03 01:35:57;;;;;;;7.93;4.18;;;10.90;76.70;;;;;;5073604;28;20075;-68
2022/01/03 01:38:32;;;;;;;10.05;3.05;;;10.80;76.80;;;;;;5073416;28;20025;-68
2022/01/03 01:41:00;;;;;;;4.82;3.53;;;10.80;76.70;;;;;;5074106;28;20036;-68
2022/01/03 01:43:32;;;;;;;7.80;3.00;;;10.80;76.10;;;;;;5073616;28;20037;-68
2022/01/03 01:46:00;;;;;;;8.45;3.70;;;10.90;76.10;;;;;;5073656;28;20055;-68
2022/01/03 01:48:27;;;;;;;6.57;3.67;;;10.90;76.20;;;;;;5073364;28;20350;-68
2022/01/03 01:50:55;;;;;;;7.47;3.28;;;10.80;76.50;;;;;;5073825;28;20520;-68
2022/01/03 01:53:26;;;;;;;6.18;2.75;;;10.90;76.70;;;;;;5073174;28;20086;-68
2022/01/03 01:55:55;;;;;;;4.15;2.75;;;10.90;76.50;;;;;;5073456;28;20381;-69
2022/01/03 01:58:28;;;;;;;7.80;2.95;;;10.90;76.10;;;;;;5072949;28;20024;-68
2022/01/03 02:01:06;;;;;;;3.95;2.75;;;11.00;76.40;;;;;;5073710;28;20095;-68
2022/01/03 02:03:50;;;;;;;6.72;3.10;;;11.00;76.00;;;;;;5073265;28;20029;-68
2022/01/03 02:06:21;;;;;;;5.28;2.42;;;11.10;75.70;;;;;;5073247;28;20024;-68
2022/01/03 02:09:06;;;;;;;;;;;11.10;74.50;;;;;;5073852;28;20030;-68
2022/01/03 02:11:54;;;;;;;3.65;2.30;;;11.20;73.70;;;;;;5073081;28;19904;-69
2022/01/03 02:14:23;;;;;;;4.60;2.40;;;11.30;73.20;;;;;;5072923;28;20119;-68
2022/01/03 02:16:49;;;;;;;6.32;2.70;;;11.50;72.50;;;;;;5073369;28;20104;-68
2022/01/03 02:19:16;;;;;;;2.97;1.90;;;11.60;71.70;;;;;;5054927;28;20078;-68
2022/01/03 02:21:42;;;;;;;4.60;2.63;;;11.70;71.20;;;;;;5073211;28;20068;-68
2022/01/03 02:24:08;;;;;;;5.78;2.30;;;11.70;70.80;;;;;;5073242;28;20083;-69
2022/01/03 02:26:34;;;;;;;4.72;2.38;;;11.80;69.90;;;;;;5072664;28;20032;-67
2022/01/03 02:29:00;;;;;;;6.20;2.50;;;11.90;69.40;;;;;;5072950;28;20118;-69
2022/01/03 02:31:25;;;;;;;5.57;1.88;;;12.00;68.90;;;;;;5072338;28;20032;-68
2022/01/03 02:33:51;;;;;;;4.88;2.15;;;12.10;68.70;;;;;;5073366;28;20024;-67
2022/01/03 02:36:18;;;;;;;5.75;2.40;;;12.10;68.20;;;;;;5072821;28;20031;-67
2022/01/03 02:38:45;;;;;;;6.07;2.40;;;12.10;68.20;;;;;;5072973;28;20039;-68
2022/01/03 02:41:10;;;;;;;3.10;2.22;;;12.20;67.90;;;;;;5072860;28;20384;-68
2022/01/03 02:43:36;;;;;;;5.93;2.70;;;12.20;67.60;;;;;;5072473;28;20250;-68
2022/01/03 02:46:02;;;;;;;6.22;2.47;;;12.30;67.40;;;;;;5072162;28;20479;-68
2022/01/03 02:48:28;;;;;;;3.45;2.40;;;12.30;67.40;;;;;;5072137;28;20016;-68
2022/01/03 02:50:55;;;;;;;4.80;2.00;;;12.30;67.30;;;;;;5072754;28;20032;-69
2022/01/03 02:53:21;;;;;;;3.85;2.38;;;12.40;67.00;;;;;;5072274;28;20055;-67
2022/01/03 02:55:48;;;;;;;4.38;2.22;;;12.40;67.20;;;;;;5073001;28;20045;-68
2022/01/03 02:58:14;;;;;;;3.25;2.20;;;12.40;67.10;;;;;;5072798;28;20035;-68
2022/01/03 03:00:47;;;;;;;3.80;2.08;;;12.40;67.50;;;;;;5072449;28;20029;-69
2022/01/03 03:03:15;;;;;;;4.43;2.15;;;12.30;67.20;;;;;;5072687;28;20544;-67
2022/01/03 03:05:41;;;;;;;2.75;2.30;;;12.40;67.30;;;;;;5072069;28;20025;-69
2022/01/03 03:08:06;;;;;;;5.50;2.55;;;12.40;67.50;;;;;;5072680;28;20021;-68
2022/01/03 03:10:32;;;;;;;7.75;2.55;;;12.40;67.50;;;;;;5071856;28;20031;-68
2022/01/03 03:12:58;;;;;;;4.85;2.17;;;12.40;67.60;;;;;;5072631;28;20033;-68
2022/01/03 03:15:24;;;;;;;5.55;2.47;;;12.40;67.70;;;;;;5072094;28;20063;-68
2022/01/03 03:17:50;;;;;;;4.35;2.60;;;12.30;67.90;;;;;;5072669;28;20075;-68
2022/01/03 03:20:24;;;;;;;4.13;2.30;;;12.40;67.80;;;;;;5072312;28;20029;-69
2022/01/03 03:22:51;;;;;;;6.57;2.38;;;12.30;67.90;;;;;;5072645;28;20190;-68
2022/01/03 03:25:29;;;;;;;4.30;2.28;;;12.30;67.90;;;;;;5072405;28;20033;-68
2022/01/03 03:28:07;;;;;;;5.20;2.33;;;12.30;68.00;;;;;;5072491;28;20020;-68
2022/01/03 03:30:39;;;;;;;4.78;2.15;;;12.30;67.90;;;;;;5072007;28;20020;-68
2022/01/03 03:33:12;;;;;;;5.07;2.33;;;12.30;68.10;;;;;;5072503;28;20115;-69
2022/01/03 03:35:38;;;;;;;4.00;2.00;;;12.30;68.30;;;;;;5071849;28;20146;-68
2022/01/03 03:38:04;;;;;;;6.53;2.42;;;12.30;68.20;;;;;;5072288;28;20032;-68
2022/01/03 03:40:30;;;;;;;5.78;2.30;;;12.30;68.30;;;;;;5071763;28;20032;-68
2022/01/03 03:42:55;;;;;;;3.97;2.28;;;12.30;68.30;;;;;;5072572;28;20040;-69
2022/01/03 03:45:22;;;;;;;5.70;2.70;;;12.30;68.50;;;;;;5071774;28;20492;-67
2022/01/03 03:47:48;;;;;;;3.60;2.55;;;12.20;68.30;;;;;;5054494;28;20029;-68
2022/01/03 03:50:13;;;;;;;4.28;2.53;;;12.20;68.40;;;;;;5072059;28;20082;-68
2022/01/03 03:52:39;;;;;;;2.83;2.03;;;12.20;68.50;;;;;;5053703;28;20476;-67
2022/01/03 03:55:06;;;;;;;7.50;2.35;;;12.20;68.50;;;;;;5072108;28;20049;-67
2022/01/03 03:57:32;;;;;;;3.97;2.05;;;12.20;68.70;;;;;;5074850;28;20028;-68
2022/01/03 03:59:58;;;;;;;4.72;2.30;;;12.20;68.70;;;;;;5075670;28;20043;-68
2022/01/03 04:02:24;;;;;;;3.17;2.15;;;12.10;68.70;;;;;;5075355;28;20153;-68
2022/01/03 04:04:50;;;;;;;4.68;2.40;;;12.10;69.00;;;;;;5057990;28;20446;-68
2022/01/03 04:07:16;;;;;;;3.42;2.35;;;12.10;69.00;;;;;;5077209;28;20037;-70
2022/01/03 04:09:42;;;;;;;3.30;2.15;;;12.10;69.00;;;;;;5077303;28;20073;-69
2022/01/03 04:12:07;;;;;;;4.50;2.63;;;12.10;69.30;;;;;;5077048;28;20039;-69
2022/01/03 04:14:33;;;;;;;3.53;2.10;;;12.00;69.40;;;;;;5075657;28;20477;-69
2022/01/03 04:16:59;;;;;;;3.85;2.28;;;12.00;69.70;;;;;;5075623;28;20024;-69
2022/01/03 04:19:25;;;;;;;7.22;2.20;;;12.00;70.30;;;;;;5075182;28;20040;-66
2022/01/03 04:21:50;;;;;;;5.10;2.13;;;11.90;70.00;;;;;;5075746;28;20036;-69
2022/01/03 04:24:16;;;;;;;3.83;2.22;;;11.90;70.00;;;;;;5075594;28;20029;-68
2022/01/03 04:26:43;;;;;;;4.68;2.65;;;11.90;70.00;;;;;;5074977;28;20111;-69
2022/01/03 04:29:08;;;;;;;4.07;2.28;;;12.00;69.80;;;;;;5075443;28;20032;-69
2022/01/03 04:31:34;;;;;;;4.05;2.53;;;12.00;69.70;;;;;;5074911;28;20031;-69
2022/01/03 04:34:00;;;;;;;3.85;2.08;;;12.10;69.70;;;;;;5075534;28;20029;-68
2022/01/03 04:36:26;;;;;;;3.70;2.45;;;12.10;69.80;;;;;;5074829;28;20108;-67
2022/01/03 04:38:52;;;;;;;2.30;2.10;;;12.10;70.10;;;;;;5075010;28;20032;-68
2022/01/03 04:41:18;;;;;;;6.38;2.28;;;12.10;70.50;;;;;;5075244;28;20032;-69
2022/01/03 04:43:44;;;;;;;4.65;2.10;;;12.10;70.70;;;;;;5074572;28;20034;-68
2022/01/03 04:46:11;;;;;;;4.30;2.20;;;12.10;71.10;;;;;;5074939;28;20024;-68
2022/01/03 04:48:41;;;;;;;4.40;2.15;;;12.20;71.60;;;;;;5074598;28;20029;-68
2022/01/03 04:51:08;;;;;;;2.20;1.53;;;12.30;72.00;;;;;;5057105;28;20469;-68
2022/01/03 04:53:37;;;;;;;6.10;1.95;;;12.40;71.80;;;;;;5056870;28;20335;-68
2022/01/03 04:56:03;;;;;;;5.07;1.95;;;12.40;71.70;;;;;;5075145;28;20127;-69
2022/01/03 04:58:29;;;;;;;4.78;1.90;;;12.40;71.80;;;;;;5074436;28;20025;-68
2022/01/03 05:00:55;;;;;;;4.53;1.80;;;12.50;71.80;;;;;;5074482;28;20112;-69
2022/01/03 05:03:39;;;;;;;5.03;2.35;;;12.50;71.60;;;;;;5074728;28;20032;-68
2022/01/03 05:06:05;;;;;;;5.03;2.22;;;12.50;71.60;;;;;;5074428;28;20582;-68
2022/01/03 05:08:32;;;;;;;3.90;2.05;;;12.50;71.60;;;;;;5072911;28;20041;-66
2022/01/03 05:11:00;;;;;;;5.13;1.95;;;12.50;71.30;;;;;;5074753;28;20029;-68
2022/01/03 05:13:30;;;;;;;3.65;1.80;;;12.50;71.00;;;;;;5074633;28;20071;-68
2022/01/03 05:15:57;;;;;;;5.88;1.80;;;12.60;71.20;;;;;;5074397;28;20087;-67
2022/01/03 05:18:23;;;;;;;3.28;1.83;;;12.60;70.40;;;;;;5056521;28;20052;-68
2022/01/03 05:20:48;;;;;;;3.53;1.83;;;12.60;70.20;;;;;;5072853;28;20110;-67
2022/01/03 05:23:14;;;;;;;4.53;1.85;;;12.60;70.00;;;;;;5074341;28;20029;-67
2022/01/03 05:25:40;;;;;;;4.45;1.58;;;12.60;69.80;;;;;;5073861;28;20035;-67
2022/01/03 05:28:05;;;;;;;4.70;1.70;;;12.70;70.00;;;;;;5074259;28;20465;-67
2022/01/03 05:30:31;;;;;;;3.50;2.10;;;12.70;69.70;;;;;;5073756;28;20466;-67
2022/01/03 05:32:57;;;;;;;6.18;2.00;;;12.70;69.50;;;;;;5074217;28;20055;-68
2022/01/03 05:35:22;;;;;;;5.75;1.92;;;12.70;69.20;;;;;;5074172;28;20056;-68
2022/01/03 05:37:48;;;;;;;4.90;1.63;;;12.70;69.10;;;;;;5073827;28;20449;-68
2022/01/03 05:40:14;;;;;;;7.47;1.80;;;12.70;69.00;;;;;;5056084;28;20021;-68
2022/01/03 05:42:41;;;;;;;4.75;1.80;;;12.70;68.90;;;;;;5073468;28;20112;-68
2022/01/03 05:45:08;;;;;;;3.60;1.60;;;12.70;68.90;;;;;;5074099;28;20052;-68
2022/01/03 05:47:33;;;;;;;4.80;1.75;;;12.70;68.80;;;;;;5073397;28;20024;-68
2022/01/03 05:49:59;;;;;;;5.38;1.58;;;12.70;68.70;;;;;;5073682;28;20078;-68
2022/01/03 05:52:25;;;;;;;5.63;1.52;;;12.80;68.60;;;;;;5073836;28;20032;-68
2022/01/03 05:55:10;;;;;;;5.88;1.60;;;12.80;68.60;;;;;;5072853;28;20406;-68
2022/01/03 05:57:35;;;;;;;4.35;1.58;;;12.80;68.60;;;;;;5073198;28;20025;-68
2022/01/03 06:00:03;;;;;;;7.25;1.73;;;12.70;68.60;;;;;;5073522;28;20032;-68
2022/01/03 06:02:35;;;;;;;4.82;1.90;;;12.80;68.30;;;;;;5073478;28;20036;-68
2022/01/03 06:05:02;;;;;;;;;;;12.80;68.30;;;;;;5074008;28;20028;-68
2022/01/03 06:07:28;;;;;;;3.53;1.88;;;12.80;68.20;;;;;;5073633;28;19904;-69
2022/01/03 06:09:53;;;;;;;4.72;1.50;;;12.80;68.00;;;;;;5072883;28;20035;-68
2022/01/03 06:12:20;;;;;;;3.13;1.58;;;12.90;67.80;;;;;;5073176;28;20074;-69
2022/01/03 06:14:46;;;;;;;5.40;1.60;;;12.90;67.80;;;;;;5073209;28;20029;-68
2022/01/03 06:17:13;;;;;;;4.55;1.30;;;12.90;67.70;;;;;;5073076;28;20030;-68
2022/01/03 06:19:39;;;;;;;3.28;1.40;;;12.90;67.40;;;;;;5072797;28;20029;-68
2022/01/03 06:22:09;;;;;;;7.10;1.55;;;12.90;67.40;;;;;;5073316;28;20029;-69
2022/01/03 06:24:37;;;;;;;6.47;1.27;;;12.90;67.40;;;;;;5072484;28;20137;-68
2022/01/03 06:27:03;;;;;;;4.05;1.48;;;12.90;67.30;;;;;;5072727;28;20048;-67
2022/01/03 06:29:29;;;;;;;4.63;1.35;;;12.90;67.30;;;;;;5072708;28;20466;-67
2022/01/03 06:31:55;;;;;;;4.07;1.63;;;12.90;67.30;;;;;;5072832;28;20028;-67
2022/01/03 06:34:21;;;;;;;6.07;1.63;;;12.90;67.50;;;;;;5072963;28;20074;-68
2022/01/03 06:36:47;;;;;;;4.15;1.48;;;12.90;67.50;;;;;;5072238;28;20032;-67
2022/01/03 06:39:12;;;;;;;6.95;1.63;;;12.80;67.70;;;;;;5073105;28;20111;-67
2022/01/03 06:41:39;;;;;;;5.97;1.83;;;12.80;67.80;;;;;;5072488;28;20358;-67
2022/01/03 06:44:06;;;;;;;4.90;1.70;;;12.80;68.00;;;;;;5072941;28;20059;-67
2022/01/03 06:46:32;;;;;;;5.13;1.83;;;12.70;68.10;;;;;;5073048;28;20473;-67
2022/01/03 06:49:00;;;;;;;5.82;1.83;;;12.70;68.30;;;;;;5072119;28;20477;-67
2022/01/03 06:51:31;;;;;;;5.47;1.63;;;12.70;68.30;;;;;;5072693;28;20037;-67
2022/01/03 06:53:57;;;;;;;5.85;1.88;;;12.70;68.40;;;;;;5072126;28;20039;-67
2022/01/03 06:56:22;;;;;;;4.57;1.73;;;12.70;68.60;;;;;;5072892;28;20021;-67
2022/01/03 06:59:07;;;;;;;6.07;1.50;;;12.60;68.70;;;;;;5072226;28;20082;-67
2022/01/03 07:01:33;;;;;;;4.80;1.90;;;12.60;69.00;;;;;;5072696;28;20029;-67
2022/01/03 07:03:58;;;;;;;2.90;1.60;;;12.60;69.30;;;;;;5072037;28;20496;-67
2022/01/03 07:06:24;;;;;;;4.72;1.80;;;12.50;69.50;;;;;;5072733;28;20028;-67
2022/01/03 07:08:50;;;;;;;4.78;1.83;;;12.50;69.90;;;;;;5072097;28;20036;-67
2022/01/03 07:11:15;;;;;;;4.82;1.83;;;12.40;70.00;;;;;;5072679;28;20032;-67
2022/01/03 07:13:46;;;;;;;5.65;1.75;;;12.40;70.40;;;;;;5071807;28;20109;-66
2022/01/03 07:18:56;;;;;;;4.13;1.58;;;12.40;70.70;;;;;;5072036;28;20094;-66
2022/01/03 07:21:29;;;;;;;6.53;2.10;;;12.30;71.10;;;;;;5072451;28;20469;-67
2022/01/03 07:23:56;;;;;;;6.13;1.98;;;12.30;71.20;;;;;;5072120;28;20032;-66
2022/01/03 07:26:22;;;;;;;4.00;1.80;;;12.30;71.30;;;;;;5072206;28;20056;-66
2022/01/03 07:28:48;;;;;;;7.70;1.60;;;12.30;71.50;;;;;;5071940;28;20056;-67
2022/01/03 07:31:14;;;;;;;3.10;1.30;;;12.30;71.50;;;;;;5073328;28;20505;-66
2022/01/03 07:33:39;;;;;;;5.22;2.10;;;12.30;71.70;;;;;;5076066;28;20048;-67
2022/01/03 07:36:05;;;;;;;3.67;1.55;;;12.30;71.80;;;;;;5076602;28;20377;-66
2022/01/03 07:38:31;;;;;;;5.30;1.90;;;12.30;71.90;;;;;;5076145;28;20040;-68
2022/01/03 07:40:57;;;;;;;6.55;1.50;;;12.30;72.10;;;;;;5075869;28;20039;-67
2022/01/03 07:43:23;;;;;;;4.45;1.77;;;12.30;72.70;;;;;;5076266;28;20094;-67
2022/01/03 07:45:49;;;;;;;7.18;2.72;;;12.30;72.30;;;;;;5075797;28;20470;-67
2022/01/03 07:48:14;;;;;;;5.95;2.20;;;12.30;72.70;;;;;;5076521;28;20033;-67
2022/01/03 07:50:40;;;;;;;3.75;1.85;;;12.30;73.20;;;;;;5075402;28;20089;-66
2022/01/03 07:53:06;;;;;;;7.80;2.00;;;12.30;72.80;;;;;;5076056;28;20024;-67
2022/01/03 07:55:31;;;;;;;6.75;2.00;;;12.30;73.20;;;;;;5075643;28;20115;-67
2022/01/03 07:57:57;;;;;;;7.22;2.33;;;12.30;73.30;;;;;;5075827;28;20039;-67
2022/01/03 08:00:23;;;;;;;4.60;2.00;;;12.30;73.40;;;;;;5075994;28;20032;-66
2022/01/03 08:02:49;;;;;;;4.68;1.90;;;12.30;73.60;;;;;;5075170;28;20032;-66
2022/01/03 08:05:15;;;;;;;4.82;2.72;;;12.30;73.80;;;;;;5075570;28;20100;-67
2022/01/03 08:07:45;;;;;;;5.43;2.00;;;12.30;74.10;;;;;;5075505;28;20028;-66
2022/01/03 08:10:12;;;;;;;4.18;2.00;;;12.30;74.50;;;;;;5075727;28;20112;-67
2022/01/03 08:12:39;;;;;;;3.92;1.73;;;12.30;74.80;;;;;;5075620;28;20025;-67
2022/01/03 08:15:06;;;;;;;7.78;2.40;;;12.30;75.00;;;;;;5075166;28;20082;-66
2022/01/03 08:17:32;;;;;;;4.85;1.92;;;12.20;75.10;;;;;;5075697;28;20361;-66
2022/01/03 08:19:58;;;;;;;5.18;1.90;;;12.20;75.30;;;;;;5074907;28;20509;-68
2022/01/03 08:22:24;;;;;;;4.65;1.95;;;12.20;75.50;;;;;;5075536;28;20116;-67
2022/01/03 08:24:49;;;;;;;6.70;2.75;;;12.20;75.80;;;;;;5075533;28;20457;-66
2022/01/03 08:27:15;;;;;;;4.32;2.20;;;12.20;76.00;;;;;;5075524;28;20021;-67
2022/01/03 08:29:41;;;;;;;5.60;2.15;;;12.20;76.20;;;;;;5075472;28;20128;-67
2022/01/03 08:32:07;;;;;;;6.30;2.50;;;12.20;76.30;;;;;;5074649;28;20033;-67
2022/01/03 08:34:32;;;;;;;4.18;2.00;;;12.30;76.40;;;;;;5075213;28;20107;-67
2022/01/03 08:37:01;;;;;;;4.47;2.00;;;12.30;76.50;;;;;;5074575;28;20058;-67
2022/01/03 08:39:27;;;;;;;6.35;1.95;;;12.30;76.60;;;;;;5075277;28;20031;-66
2022/01/03 08:41:54;;;;;;;5.70;2.38;;;12.30;76.60;;;;;;5074456;28;20024;-66
2022/01/03 08:44:19;;;;;;;7.25;2.42;;;12.30;76.70;;;;;;5074038;28;20028;-66
2022/01/03 08:46:50;;;;;;;7.07;2.30;;;12.30;76.90;;;;;;5074229;28;20023;-66
2022/01/03 08:49:17;;;;;;;6.93;2.25;;;12.30;76.80;;;;;;5075024;28;20032;-66
2022/01/03 08:51:43;;;;;;;4.63;2.28;;;12.30;76.70;;;;;;5074768;28;20385;-67
2022/01/03 08:54:08;;;;;;;7.00;2.05;;;12.30;76.40;;;;;;5074394;28;20053;-66
2022/01/03 08:56:34;;;;;;;4.03;2.05;;;12.30;76.30;;;;;;5074662;28;20025;-67
2022/01/03 08:59:02;;;;;;;4.75;2.20;;;12.40;75.70;;;;;;5074399;28;20197;-67
2022/01/03 09:01:27;;;;;;;5.07;1.98;;;12.40;74.90;;;;;;5074743;28;20384;-67
2022/01/03 09:03:53;;;;;;;4.28;1.90;;;12.50;75.10;;;;;;5074265;28;20107;-67
2022/01/03 09:06:20;;;;;;;4.63;1.60;;;12.50;74.30;;;;;;5074736;28;20025;-66
2022/01/03 09:08:46;;;;;;;4.35;1.45;;;12.50;73.20;;;;;;5074368;28;20107;-68
2022/01/03 09:11:12;;;;;;;4.93;1.92;;;12.60;72.60;;;;;;5074657;28;20032;-67
2022/01/03 09:13:38;;;;;;;6.20;2.20;;;12.60;72.40;;;;;;5074317;28;20381;-68
2022/01/03 09:16:07;;;;;;;4.95;1.80;;;12.60;72.10;;;;;;5074072;28;20476;-67
2022/01/03 09:18:38;;;;;;;5.40;2.33;;;12.70;71.90;;;;;;5074361;28;20381;-68
2022/01/03 09:21:22;;;;;;;5.45;1.73;;;12.70;72.10;;;;;;5073825;28;20048;-67
2022/01/03 09:23:53;;;;;;;3.20;1.80;;;12.70;72.00;;;;;;5073758;28;20033;-66
2022/01/03 09:29:03;;;;;;;4.88;1.83;;;12.80;72.10;;;;;;5073584;28;20120;-67
2022/01/03 09:31:30;;;;;;;4.57;1.67;;;12.80;71.90;;;;;;5074255;28;20055;-67
2022/01/03 09:33:59;;;;;;;3.65;1.60;;;12.80;72.00;;;;;;5073387;28;20028;-66
2022/01/03 09:36:26;;;;;;;5.22;1.70;;;12.80;72.50;;;;;;5074030;28;20027;-67
2022/01/03 09:38:52;;;;;;;5.95;1.70;;;12.80;71.50;;;;;;5073508;28;20119;-66
2022/01/03 09:41:21;;;;;;;4.57;1.98;;;12.90;71.80;;;;;;5073923;28;20183;-67
2022/01/03 09:43:54;;;;;;;5.60;2.38;;;12.90;71.70;;;;;;5074117;28;20185;-67
2022/01/03 09:46:26;;;;;;;4.93;2.50;;;12.90;72.00;;;;;;5074630;28;20035;-67
2022/01/03 09:48:55;;;;;;;5.30;1.80;;;12.90;71.70;;;;;;5073621;28;20032;-66
2022/01/03 09:51:23;;;;;;;5.28;1.92;;;12.90;71.10;;;;;;5074117;28;20028;-66
2022/01/03 09:53:51;;;;;;;5.55;2.03;;;12.90;71.00;;;;;;5072745;28;20456;-67
2022/01/03 09:56:18;;;;;;;4.45;1.90;;;12.90;70.60;;;;;;5074318;28;20020;-67
2022/01/03 09:58:44;;;;;;;5.03;1.80;;;12.90;70.30;;;;;;5075339;28;20020;-67
2022/01/03 10:01:10;;;;;;;6.35;1.70;;;12.90;69.90;;;;;;5074123;28;20028;-67
2022/01/03 10:03:36;;;;;;;5.00;1.65;;;12.90;70.40;;;;;;5073744;28;20393;-67
2022/01/03 10:06:02;;;;;;;3.13;1.67;;;12.90;70.40;;;;;;5073056;28;20025;-66
2022/01/03 10:08:28;;;;;;;3.13;1.60;;;12.90;70.30;;;;;;5073644;28;20021;-67
2022/01/03 10:10:54;;;;;;;5.55;1.40;;;13.00;70.20;;;;;;5073102;28;20365;-68
2022/01/03 10:13:20;;;;;;;4.90;1.20;;;13.20;69.70;;;;;;5073461;28;20078;-66
2022/01/03 10:15:47;;;;;;;4.22;1.52;;;13.30;68.90;;;;;;5073044;28;20392;-67
2022/01/03 10:18:20;;;;;;;4.03;1.58;;;13.40;69.50;;;;;;5072812;28;20158;-67
2022/01/03 10:20:47;;;;;;;6.72;1.42;;;13.50;69.40;;;;;;5073256;28;20025;-66
2022/01/03 10:23:15;;;;;;;3.03;1.15;;;13.60;68.90;;;;;;5054709;28;20377;-66
2022/01/03 10:25:42;;;;;;;2.80;1.27;;;13.70;67.40;;;;;;5073048;28;20377;-66
2022/01/03 10:28:08;;;;;;;2.53;1.10;;;13.70;67.30;;;;;;5072503;28;20028;-67
2022/01/03 10:30:40;;;;;;;4.20;1.30;;;13.80;67.00;;;;;;5072976;28;20024;-66
2022/01/03 10:33:10;;;;;;;3.47;1.27;;;13.80;67.00;;;;;;5072700;28;20532;-66
2022/01/03 10:35:43;;;;;;;3.22;1.40;;;13.90;66.60;;;;;;5073102;28;20105;-66
2022/01/03 10:38:11;;;;;;;2.38;1.33;;;13.90;66.90;;;;;;5072449;28;20029;-66
2022/01/03 10:40:37;;;;;;;4.80;1.42;;;13.90;67.20;;;;;;5072649;28;20078;-66
2022/01/03 10:43:14;;;;;;;5.90;1.92;;;13.90;67.20;;;;;;5072091;28;20455;-66
2022/01/03 10:45:41;;;;;;;4.35;1.63;;;13.90;67.40;;;;;;5072827;28;20028;-66
2022/01/03 10:48:26;;;;;;;3.65;1.30;;;13.90;68.10;;;;;;5072382;28;20048;-66
2022/01/03 10:50:52;;;;;;;3.13;1.42;;;13.90;67.20;;;;;;5072874;28;20025;-66
2022/01/03 10:53:37;;;;;;;5.60;1.52;;;13.90;67.00;;;;;;5072740;28;20111;-66
2022/01/03 10:56:28;;;;;;;4.43;1.80;;;13.90;66.90;;;;;;5071802;28;20101;-66
2022/01/03 10:58:59;;;;;;;6.43;2.55;;;13.90;67.10;;;;;;5072112;28;20032;-66
2022/01/03 11:01:28;;;;;;;7.05;1.60;;;13.90;66.80;;;;;;5072709;28;20037;-66
2022/01/03 11:03:56;;;;;;;3.63;1.30;;;14.00;66.30;;;;;;5072088;28;20025;-66
2022/01/03 11:06:46;;;;;;;3.83;1.27;;;14.00;65.50;;;;;;5054406;28;20035;-67
2022/01/03 11:11:58;;;;;;;4.03;1.42;;;14.00;65.60;;;;;;5072144;28;20103;-67
2022/01/03 11:14:30;;;;;;;4.05;1.25;;;13.90;65.00;;;;;;5072804;28;20028;-67
2022/01/03 11:16:57;;;;;;;2.33;1.13;;;14.00;65.40;;;;;;5071976;28;20036;-67
2022/01/03 11:19:39;;;;;;;6.47;1.20;;;14.00;65.40;;;;;;5072445;28;20028;-66
2022/01/03 11:22:05;;;;;;;2.03;0.98;;;14.00;65.40;;;;;;5071886;28;20033;-67
2022/01/03 11:24:31;;;;;;;3.28;1.42;;;14.00;65.30;;;;;;5072512;28;20033;-66
2022/01/03 11:26:57;;;;;;;7.68;1.38;;;14.00;65.60;;;;;;5071863;28;20031;-66
2022/01/03 11:29:22;;;;;;;2.80;1.20;;;14.00;65.90;;;;;;5071905;28;20031;-66
2022/01/03 11:31:53;;;;;;;2.85;1.00;;;14.00;65.90;;;;;;5072304;28;20104;-66
2022/01/03 11:34:23;;;;;;;3.15;1.23;;;13.90;65.90;;;;;;5071901;28;20064;-68
2022/01/03 11:36:49;;;;;;;3.67;1.10;;;14.00;66.40;;;;;;5072403;28;20029;-66
2022/01/03 11:39:19;;;;;;;4.28;1.13;;;14.10;66.30;;;;;;5071771;28;20082;-67
2022/01/03 11:41:45;;;;;;;2.40;1.00;;;14.10;65.80;;;;;;5071845;28;20410;-66
2022/01/03 11:44:12;;;;;;;2.10;0.93;;;14.10;65.80;;;;;;5071654;28;20060;-67
2022/01/03 11:46:40;;;;;;;3.05;1.02;;;14.10;66.10;;;;;;5072224;28;20025;-67
2022/01/03 11:49:06;;;;;;;3.00;0.95;;;13.90;65.60;;;;;;5071730;28;20075;-67
2022/01/03 11:51:34;;;;;;;3.67;1.00;;;13.90;66.00;;;;;;5072129;28;20035;-67
2022/01/03 11:54:03;;;;;;;3.30;1.10;;;13.90;66.30;;;;;;5071357;28;20047;-66
2022/01/03 11:56:30;;;;;;;2.45;0.80;;;13.90;66.50;;;;;;5072016;28;20103;-67
2022/01/03 12:04:40;;;;;;;2.90;1.05;;;13.80;66.80;;;;;;5072220;28;20440;-67
2022/01/03 12:07:15;;;;;;;2.45;1.00;;;13.80;67.10;;;;;;5071568;28;20020;-66
2022/01/03 12:09:43;;;;;;;3.72;1.23;;;13.70;67.40;;;;;;5072063;28;20430;-67
2022/01/03 12:12:27;;;;;;;3.25;0.80;;;13.70;67.80;;;;;;5071456;28;20032;-67
2022/01/03 12:14:53;;;;;;;2.95;0.82;;;13.70;68.00;;;;;;5072052;28;20354;-67
2022/01/03 12:17:18;;;;;;;1.52;0.88;;;13.70;68.10;;;;;;5072198;28;20420;-66
2022/01/03 12:19:47;;;;;;;1.80;0.90;;;13.60;68.90;;;;;;5075792;28;20029;-67
2022/01/03 12:22:17;;;;;;;4.40;0.90;;;13.60;68.60;;;;;;5075300;28;20055;-67
2022/01/03 12:24:45;;;;;;;2.28;0.90;;;13.60;68.90;;;;;;5075386;28;20067;-67
2022/01/03 12:27:13;;;;;;;2.20;0.95;;;13.60;68.80;;;;;;5074966;28;20035;-66
2022/01/03 12:29:54;;;;;;;2.17;1.00;;;13.70;69.30;;;;;;5075436;28;20469;-67
2022/01/03 12:32:27;;;;;;;2.60;1.20;;;13.70;68.80;;;;;;5074929;28;20184;-66
2022/01/03 12:35:22;;;;;;;3.92;0.98;;;13.70;68.30;;;;;;5075038;28;20082;-68
2022/01/03 12:37:54;;;;;;;2.65;1.25;;;13.70;68.60;;;;;;5075380;28;20020;-67
2022/01/03 12:40:31;;;;;;;5.80;1.20;;;13.50;69.30;;;;;;5074680;28;20078;-67
2022/01/03 12:43:13;;;;;;;3.25;1.25;;;13.50;70.10;;;;;;5075160;28;20032;-67
2022/01/03 12:45:39;;;;;;;2.03;1.15;;;13.40;70.80;;;;;;5075297;28;20416;-67
2022/01/03 12:48:11;;;;;;;3.30;1.27;;;13.30;71.10;;;;;;5074553;28;20033;-67
2022/01/03 12:50:40;;;;;;;5.22;1.20;;;13.40;71.30;;;;;;5075017;28;20074;-68
2022/01/03 12:53:12;;;;;;;3.70;2.00;;;13.30;71.20;;;;;;5074493;28;20056;-67
2022/01/03 12:55:38;;;;;;;2.67;1.02;;;13.30;71.50;;;;;;5074956;28;20048;-67
2022/01/03 12:58:18;;;;;;;4.03;1.52;;;13.30;71.60;;;;;;5074437;28;20374;-67
2022/01/03 13:01:05;;;;;;;3.58;1.20;;;13.20;72.20;;;;;;5074941;28;20040;-67
2022/01/03 13:03:42;;;;;;;5.13;1.48;;;13.20;72.20;;;;;;5074680;28;20044;-67
2022/01/03 13:06:24;;;;;;;6.45;1.40;;;13.20;72.20;;;;;;5074211;28;20218;-67
2022/01/03 13:08:56;;;;;;;5.25;1.48;;;13.20;72.40;;;;;;5074724;28;20038;-67
2022/01/03 13:11:31;;;;;;;4.57;1.45;;;13.20;72.30;;;;;;5074283;28;20029;-67